sensor_id;sensor_type;location;lat;lon;timestamp;pressure;altitude;pressure_sealevel;temperature;humidity
37610;BME280;23457;51.966;8.230;2023-05-08T00:00:49;101455.25;;;12.73;87.68
37610;BME280;23457;51.966;8.230;2023-05-08T00:03:15;101447.50;;;12.79;88.13
37610;BME280;23457;51.966;8.230;2023-05-08T00:05:42;101456.28;;;12.83;87.51
37610;BME280;23457;51.966;8.230;2023-05-08T00:08:08;101442.31;;;12.78;87.33
37610;BME280;23457;51.966;8.230;2023-05-08T00:10:35;101448.38;;;12.77;88.00
37610;BME280;23457;51.966;8.230;2023-05-08T00:13:02;101447.78;;;12.93;86.81
37610;BME280;23457;51.966;8.230;2023-05-08T00:15:29;101449.28;;;12.79;87.63
37610;BME280;23457;51.966;8.230;2023-05-08T00:17:55;101450.31;;;12.88;87.33
37610;BME280;23457;51.966;8.230;2023-05-08T00:20:22;101445.03;;;12.85;87.30
37610;BME280;23457;51.966;8.230;2023-05-08T00:22:48;101442.47;;;12.87;87.40
37610;BME280;23457;51.966;8.230;2023-05-08T00:25:15;101446.78;;;12.86;87.26
37610;BME280;23457;51.966;8.230;2023-05-08T00:27:42;101443.19;;;12.80;87.53
37610;BME280;23457;51.966;8.230;2023-05-08T00:30:09;101444.84;;;12.75;87.70
37610;BME280;23457;51.966;8.230;2023-05-08T00:32:36;101436.94;;;12.72;87.97
37610;BME280;23457;51.966;8.230;2023-05-08T00:35:03;101433.53;;;12.74;88.03
37610;BME280;23457;51.966;8.230;2023-05-08T00:37:29;101438.41;;;12.57;88.00
37610;BME280;23457;51.966;8.230;2023-05-08T00:39:56;101438.31;;;12.51;89.04
37610;BME280;23457;51.966;8.230;2023-05-08T00:42:24;101438.09;;;12.42;90.46
37610;BME280;23457;51.966;8.230;2023-05-08T00:44:51;101438.25;;;12.48;89.65
37610;BME280;23457;51.966;8.230;2023-05-08T00:47:19;101437.47;;;12.52;90.08
37610;BME280;23457;51.966;8.230;2023-05-08T00:49:47;101437.19;;;12.39;90.39
37610;BME280;23457;51.966;8.230;2023-05-08T00:52:14;101433.13;;;12.54;89.57
37610;BME280;23457;51.966;8.230;2023-05-08T00:54:42;101434.00;;;12.55;89.09
37610;BME280;23457;51.966;8.230;2023-05-08T00:57:10;101438.56;;;12.64;88.80
37610;BME280;23457;51.966;8.230;2023-05-08T00:59:38;101441.63;;;12.44;89.87
37610;BME280;23457;51.966;8.230;2023-05-08T01:02:07;101448.06;;;12.62;89.18
37610;BME280;23457;51.966;8.230;2023-05-08T01:04:35;101447.84;;;12.49;89.11
37610;BME280;23457;51.966;8.230;2023-05-08T01:07:02;101438.41;;;12.57;89.64
37610;BME280;23457;51.966;8.230;2023-05-08T01:09:29;101440.00;;;12.49;89.56
37610;BME280;23457;51.966;8.230;2023-05-08T01:14:34;101437.44;;;12.51;90.09
37610;BME280;23457;51.966;8.230;2023-05-08T01:25:49;101435.47;;;12.39;90.42
37610;BME280;23457;51.966;8.230;2023-05-08T01:34:23;101436.06;;;12.26;91.62
37610;BME280;23457;51.966;8.230;2023-05-08T01:39:25;101433.56;;;12.32;91.05
37610;BME280;23457;51.966;8.230;2023-05-08T01:42:03;101438.97;;;12.41;90.04
37610;BME280;23457;51.966;8.230;2023-05-08T01:44:36;101442.38;;;12.37;89.94
37610;BME280;23457;51.966;8.230;2023-05-08T01:47:06;101441.38;;;12.32;90.73
37610;BME280;23457;51.966;8.230;2023-05-08T01:49:45;101438.00;;;12.36;90.71
37610;BME280;23457;51.966;8.230;2023-05-08T01:52:21;101437.16;;;12.37;90.30
37610;BME280;23457;51.966;8.230;2023-05-08T01:55:03;101439.31;;;12.16;91.40
37610;BME280;23457;51.966;8.230;2023-05-08T01:57:33;101441.38;;;12.32;90.67
37610;BME280;23457;51.966;8.230;2023-05-08T02:00:02;101438.84;;;12.35;90.76
37610;BME280;23457;51.966;8.230;2023-05-08T02:02:35;101436.81;;;12.20;91.16
37610;BME280;23457;51.966;8.230;2023-05-08T02:05:04;101435.13;;;12.23;91.86
37610;BME280;23457;51.966;8.230;2023-05-08T02:07:33;101427.19;;;12.18;91.86
37610;BME280;23457;51.966;8.230;2023-05-08T02:10:04;101430.88;;;11.87;93.86
37610;BME280;23457;51.966;8.230;2023-05-08T02:12:31;101427.00;;;12.09;92.74
37610;BME280;23457;51.966;8.230;2023-05-08T02:15:00;101426.75;;;11.97;93.46
37610;BME280;23457;51.966;8.230;2023-05-08T02:17:29;101432.16;;;12.06;93.14
37610;BME280;23457;51.966;8.230;2023-05-08T02:19:57;101433.84;;;12.04;93.35
37610;BME280;23457;51.966;8.230;2023-05-08T02:22:27;101432.91;;;12.00;93.83
37610;BME280;23457;51.966;8.230;2023-05-08T02:24:55;101436.50;;;12.07;93.56
37610;BME280;23457;51.966;8.230;2023-05-08T02:27:26;101432.16;;;12.06;93.46
37610;BME280;23457;51.966;8.230;2023-05-08T02:29:55;101440.94;;;12.11;92.99
37610;BME280;23457;51.966;8.230;2023-05-08T02:32:24;101439.97;;;12.06;92.63
37610;BME280;23457;51.966;8.230;2023-05-08T02:34:53;101439.00;;;12.01;93.71
37610;BME280;23457;51.966;8.230;2023-05-08T02:37:30;101431.97;;;11.97;94.16
37610;BME280;23457;51.966;8.230;2023-05-08T02:39:58;101440.88;;;12.08;93.26
37610;BME280;23457;51.966;8.230;2023-05-08T02:42:25;101446.78;;;11.99;93.63
37610;BME280;23457;51.966;8.230;2023-05-08T02:44:52;101453.00;;;12.06;93.13
37610;BME280;23457;51.966;8.230;2023-05-08T02:47:45;101449.47;;;12.04;93.46
37610;BME280;23457;51.966;8.230;2023-05-08T02:53:39;101446.88;;;12.04;93.77
37610;BME280;23457;51.966;8.230;2023-05-08T02:56:27;101449.88;;;11.83;94.88
37610;BME280;23457;51.966;8.230;2023-05-08T02:59:09;101444.94;;;11.95;94.59
37610;BME280;23457;51.966;8.230;2023-05-08T03:01:53;101439.75;;;11.95;94.31
37610;BME280;23457;51.966;8.230;2023-05-08T03:04:31;101436.25;;;11.95;94.54
37610;BME280;23457;51.966;8.230;2023-05-08T03:07:00;101433.66;;;11.95;94.45
37610;BME280;23457;51.966;8.230;2023-05-08T03:09:37;101431.91;;;11.95;94.46
37610;BME280;23457;51.966;8.230;2023-05-08T03:12:11;101433.66;;;11.95;94.47
37610;BME280;23457;51.966;8.230;2023-05-08T03:14:52;101436.06;;;11.86;95.08
37610;BME280;23457;51.966;8.230;2023-05-08T03:17:22;101434.41;;;11.91;94.61
37610;BME280;23457;51.966;8.230;2023-05-08T03:19:54;101435.06;;;11.80;95.21
37610;BME280;23457;51.966;8.230;2023-05-08T03:22:23;101433.25;;;11.76;95.72
37610;BME280;23457;51.966;8.230;2023-05-08T03:24:52;101431.28;;;11.68;95.97
37610;BME280;23457;51.966;8.230;2023-05-08T03:27:22;101432.88;;;11.61;96.67
37610;BME280;23457;51.966;8.230;2023-05-08T03:29:50;101425.91;;;11.60;97.31
37610;BME280;23457;51.966;8.230;2023-05-08T03:32:18;101426.78;;;11.61;97.55
37610;BME280;23457;51.966;8.230;2023-05-08T03:34:48;101424.91;;;11.55;97.21
37610;BME280;23457;51.966;8.230;2023-05-08T03:37:15;101431.06;;;11.59;97.13
37610;BME280;23457;51.966;8.230;2023-05-08T03:39:42;101429.34;;;11.59;97.07
37610;BME280;23457;51.966;8.230;2023-05-08T03:42:09;101426.09;;;11.69;96.54
37610;BME280;23457;51.966;8.230;2023-05-08T03:44:38;101426.09;;;11.69;96.68
37610;BME280;23457;51.966;8.230;2023-05-08T03:47:05;101424.13;;;11.59;97.46
37610;BME280;23457;51.966;8.230;2023-05-08T03:49:33;101422.31;;;11.55;97.48
37610;BME280;23457;51.966;8.230;2023-05-08T03:52:02;101430.34;;;11.66;97.60
37610;BME280;23457;51.966;8.230;2023-05-08T03:54:29;101419.06;;;11.65;97.76
37610;BME280;23457;51.966;8.230;2023-05-08T03:56:57;101411.28;;;11.67;97.34
37610;BME280;23457;51.966;8.230;2023-05-08T03:59:41;101420.84;;;11.68;97.29
37610;BME280;23457;51.966;8.230;2023-05-08T04:02:32;101425.91;;;11.60;97.89
37610;BME280;23457;51.966;8.230;2023-05-08T04:05:15;101421.78;;;11.70;97.08
37610;BME280;23457;51.966;8.230;2023-05-08T04:07:52;101427.75;;;11.66;98.32
37610;BME280;23457;51.966;8.230;2023-05-08T04:10:28;101422.66;;;11.70;97.37
37610;BME280;23457;51.966;8.230;2023-05-08T04:13:08;101416.69;;;11.74;96.89
37610;BME280;23457;51.966;8.230;2023-05-08T04:15:51;101417.53;;;11.73;97.85
37610;BME280;23457;51.966;8.230;2023-05-08T04:18:24;101416.50;;;11.67;97.54
37610;BME280;23457;51.966;8.230;2023-05-08T04:20:56;101422.72;;;11.73;97.49
37610;BME280;23457;51.966;8.230;2023-05-08T04:23:25;101412.91;;;11.62;98.93
37610;BME280;23457;51.966;8.230;2023-05-08T04:25:55;101420.63;;;11.57;98.55
37610;BME280;23457;51.966;8.230;2023-05-08T04:28:23;101418.72;;;11.50;99.00
37610;BME280;23457;51.966;8.230;2023-05-08T04:30:50;101424.06;;;11.56;99.07
37610;BME280;23457;51.966;8.230;2023-05-08T04:33:17;101429.53;;;11.68;98.15
37610;BME280;23457;51.966;8.230;2023-05-08T04:35:44;101425.91;;;11.60;98.65
37610;BME280;23457;51.966;8.230;2023-05-08T04:38:12;101426.72;;;11.58;99.30
37610;BME280;23457;51.966;8.230;2023-05-08T04:40:40;101433.91;;;11.69;98.65
37610;BME280;23457;51.966;8.230;2023-05-08T04:43:08;101428.94;;;11.77;98.43
37610;BME280;23457;51.966;8.230;2023-05-08T04:45:36;101428.94;;;11.78;99.00
37610;BME280;23457;51.966;8.230;2023-05-08T04:48:03;101434.38;;;11.88;98.16
37610;BME280;23457;51.966;8.230;2023-05-08T04:50:30;101439.00;;;12.01;97.18
37610;BME280;23457;51.966;8.230;2023-05-08T04:52:57;101442.59;;;12.07;97.64
37610;BME280;23457;51.966;8.230;2023-05-08T04:55:24;101442.78;;;12.15;96.49
37610;BME280;23457;51.966;8.230;2023-05-08T04:57:51;101440.75;;;12.02;98.65
37610;BME280;23457;51.966;8.230;2023-05-08T05:00:18;101441.72;;;12.07;98.24
37610;BME280;23457;51.966;8.230;2023-05-08T05:02:45;101450.53;;;12.12;97.51
37610;BME280;23457;51.966;8.230;2023-05-08T05:05:12;101448.84;;;12.14;96.20
37610;BME280;23457;51.966;8.230;2023-05-08T05:07:39;101453.31;;;12.21;95.89
37610;BME280;23457;51.966;8.230;2023-05-08T05:10:07;101456.94;;;12.29;96.18
37610;BME280;23457;51.966;8.230;2023-05-08T05:12:34;101455.44;;;12.39;95.59
37610;BME280;23457;51.966;8.230;2023-05-08T05:15:03;101466.88;;;12.47;95.81
37610;BME280;23457;51.966;8.230;2023-05-08T05:17:32;101467.63;;;12.41;95.64
37610;BME280;23457;51.966;8.230;2023-05-08T05:20:01;101470.56;;;12.56;94.27
37610;BME280;23457;51.966;8.230;2023-05-08T05:22:29;101471.78;;;12.74;94.01
37610;BME280;23457;51.966;8.230;2023-05-08T05:24:58;101481.19;;;12.67;93.92
37610;BME280;23457;51.966;8.230;2023-05-08T05:27:26;101474.44;;;12.77;93.82
37610;BME280;23457;51.966;8.230;2023-05-08T05:29:54;101476.34;;;12.85;94.03
37610;BME280;23457;51.966;8.230;2023-05-08T05:32:21;101468.91;;;13.08;92.91
37610;BME280;23457;51.966;8.230;2023-05-08T05:34:48;101472.69;;;13.22;91.24
37610;BME280;23457;51.966;8.230;2023-05-08T05:37:15;101474.31;;;13.14;91.96
37610;BME280;23457;51.966;8.230;2023-05-08T05:39:42;101472.75;;;13.25;91.17
37610;BME280;23457;51.966;8.230;2023-05-08T05:42:08;101475.41;;;13.30;90.88
37610;BME280;23457;51.966;8.230;2023-05-08T05:44:36;101480.44;;;13.18;91.97
37610;BME280;23457;51.966;8.230;2023-05-08T05:47:02;101483.03;;;13.18;91.00
37610;BME280;23457;51.966;8.230;2023-05-08T05:49:36;101489.13;;;13.18;92.16
37610;BME280;23457;51.966;8.230;2023-05-08T05:52:03;101490.00;;;13.16;91.60
37610;BME280;23457;51.966;8.230;2023-05-08T05:54:29;101496.16;;;13.21;91.89
37610;BME280;23457;51.966;8.230;2023-05-08T05:56:56;101489.19;;;13.21;91.04
37610;BME280;23457;51.966;8.230;2023-05-08T05:59:23;101494.59;;;13.32;90.99
37610;BME280;23457;51.966;8.230;2023-05-08T06:01:50;101495.44;;;13.30;92.06
37610;BME280;23457;51.966;8.230;2023-05-08T06:04:17;101495.59;;;13.39;92.01
37610;BME280;23457;51.966;8.230;2023-05-08T06:06:43;101494.97;;;13.53;90.15
37610;BME280;23457;51.966;8.230;2023-05-08T06:09:10;101492.09;;;13.38;90.63
37610;BME280;23457;51.966;8.230;2023-05-08T06:11:37;101488.38;;;13.24;90.72
37610;BME280;23457;51.966;8.230;2023-05-08T06:14:03;101495.34;;;13.23;91.40
37610;BME280;23457;51.966;8.230;2023-05-08T06:16:30;101493.72;;;13.32;91.39
37610;BME280;23457;51.966;8.230;2023-05-08T06:18:58;101490.00;;;13.17;90.86
37610;BME280;23457;51.966;8.230;2023-05-08T06:21:25;101493.72;;;13.32;92.30
37610;BME280;23457;51.966;8.230;2023-05-08T06:23:52;101500.88;;;13.42;91.85
37610;BME280;23457;51.966;8.230;2023-05-08T06:26:18;101494.91;;;13.49;91.05
37610;BME280;23457;51.966;8.230;2023-05-08T06:28:48;101499.34;;;13.56;90.52
37610;BME280;23457;51.966;8.230;2023-05-08T06:31:15;101497.91;;;13.73;90.54
37610;BME280;23457;51.966;8.230;2023-05-08T06:33:41;101500.31;;;13.61;90.38
37610;BME280;23457;51.966;8.230;2023-05-08T06:36:08;101500.56;;;13.76;89.28
37610;BME280;23457;51.966;8.230;2023-05-08T06:38:35;101491.75;;;13.71;91.69
37610;BME280;23457;51.966;8.230;2023-05-08T06:41:01;101497.53;;;13.50;91.72
37610;BME280;23457;51.966;8.230;2023-05-08T06:43:28;101494.38;;;13.71;90.22
37610;BME280;23457;51.966;8.230;2023-05-08T06:45:55;101492.66;;;13.73;88.80
37610;BME280;23457;51.966;8.230;2023-05-08T06:48:22;101496.25;;;13.78;89.03
37610;BME280;23457;51.966;8.230;2023-05-08T06:50:54;101498.16;;;13.90;88.38
37610;BME280;23457;51.966;8.230;2023-05-08T06:53:21;101494.75;;;13.97;89.10
37610;BME280;23457;51.966;8.230;2023-05-08T06:55:48;101496.84;;;14.21;88.37
37610;BME280;23457;51.966;8.230;2023-05-08T06:58:14;101495.28;;;14.35;89.06
37610;BME280;23457;51.966;8.230;2023-05-08T07:00:41;101496.06;;;14.28;87.64
37610;BME280;23457;51.966;8.230;2023-05-08T07:03:08;101496.91;;;14.25;87.00
37610;BME280;23457;51.966;8.230;2023-05-08T07:05:35;101506.63;;;14.35;87.76
37610;BME280;23457;51.966;8.230;2023-05-08T07:08:01;101499.75;;;14.41;87.03
37610;BME280;23457;51.966;8.230;2023-05-08T07:10:28;101498.94;;;14.43;86.08
37610;BME280;23457;51.966;8.230;2023-05-08T07:12:54;101492.88;;;14.49;87.70
37610;BME280;23457;51.966;8.230;2023-05-08T07:15:21;101491.06;;;14.45;86.87
37610;BME280;23457;51.966;8.230;2023-05-08T07:17:52;101488.31;;;14.34;87.18
37610;BME280;23457;51.966;8.230;2023-05-08T07:20:19;101483.00;;;14.28;88.05
37610;BME280;23457;51.966;8.230;2023-05-08T07:22:47;101479.88;;;14.53;87.21
37610;BME280;23457;51.966;8.230;2023-05-08T07:25:13;101478.28;;;14.67;87.28
37610;BME280;23457;51.966;8.230;2023-05-08T07:27:41;101481.00;;;14.77;85.80
37610;BME280;23457;51.966;8.230;2023-05-08T07:30:07;101470.56;;;14.78;86.02
37610;BME280;23457;51.966;8.230;2023-05-08T07:32:35;101471.72;;;15.06;86.53
37610;BME280;23457;51.966;8.230;2023-05-08T07:35:01;101460.53;;;15.24;84.32
37610;BME280;23457;51.966;8.230;2023-05-08T07:37:29;101463.22;;;15.33;85.12
37610;BME280;23457;51.966;8.230;2023-05-08T07:39:55;101453.53;;;15.24;82.86
37610;BME280;23457;51.966;8.230;2023-05-08T07:42:22;101463.25;;;15.37;83.07
37610;BME280;23457;51.966;8.230;2023-05-08T07:44:49;101462.41;;;15.40;82.53
37610;BME280;23457;51.966;8.230;2023-05-08T07:47:21;101460.06;;;15.69;83.99
37610;BME280;23457;51.966;8.230;2023-05-08T07:49:48;101465.41;;;15.89;82.81
37610;BME280;23457;51.966;8.230;2023-05-08T07:52:14;101461.09;;;15.95;82.39
37610;BME280;23457;51.966;8.230;2023-05-08T07:54:41;101458.53;;;16.07;82.55
37610;BME280;23457;51.966;8.230;2023-05-08T07:57:07;101456.75;;;16.00;82.67
37610;BME280;23457;51.966;8.230;2023-05-08T07:59:34;101454.16;;;16.11;81.48
37610;BME280;23457;51.966;8.230;2023-05-08T08:02:01;101456.88;;;16.28;82.24
37610;BME280;23457;51.966;8.230;2023-05-08T08:04:28;101445.56;;;16.33;81.03
37610;BME280;23457;51.966;8.230;2023-05-08T08:06:57;101437.63;;;16.26;80.18
37610;BME280;23457;51.966;8.230;2023-05-08T08:09:23;101448.16;;;16.29;82.20
37610;BME280;23457;51.966;8.230;2023-05-08T08:11:51;101451.72;;;16.52;81.79
37610;BME280;23457;51.966;8.230;2023-05-08T08:14:18;101439.59;;;16.91;80.79
37610;BME280;23457;51.966;8.230;2023-05-08T08:16:45;101447.50;;;17.16;79.05
37610;BME280;23457;51.966;8.230;2023-05-08T08:19:12;101453.59;;;16.99;79.63
37610;BME280;23457;51.966;8.230;2023-05-08T08:21:42;101452.69;;;16.69;82.50
37610;BME280;23457;51.966;8.230;2023-05-08T08:24:09;101464.13;;;16.91;81.02
37610;BME280;23457;51.966;8.230;2023-05-08T08:26:36;101458.88;;;17.05;80.07
37610;BME280;23457;51.966;8.230;2023-05-08T08:29:02;101462.38;;;16.95;80.89
37610;BME280;23457;51.966;8.230;2023-05-08T08:31:29;101462.38;;;16.96;79.79
37610;BME280;23457;51.966;8.230;2023-05-08T08:33:56;101462.38;;;17.10;79.15
37610;BME280;23457;51.966;8.230;2023-05-08T08:36:23;101466.78;;;17.15;77.91
37610;BME280;23457;51.966;8.230;2023-05-08T08:38:50;101465.03;;;17.22;77.13
37610;BME280;23457;51.966;8.230;2023-05-08T08:41:17;101464.16;;;17.22;79.57
37610;BME280;23457;51.966;8.230;2023-05-08T08:43:44;101471.16;;;17.30;78.09
37610;BME280;23457;51.966;8.230;2023-05-08T08:46:12;101478.19;;;17.63;75.85
37610;BME280;23457;51.966;8.230;2023-05-08T08:48:45;101472.91;;;17.43;77.06
37610;BME280;23457;51.966;8.230;2023-05-08T08:53:48;101483.44;;;17.71;75.96
37610;BME280;23457;51.966;8.230;2023-05-08T08:56:22;101478.16;;;17.51;77.55
37610;BME280;23457;51.966;8.230;2023-05-08T08:58:54;101479.94;;;17.66;79.54
37610;BME280;23457;51.966;8.230;2023-05-08T09:01:23;101479.94;;;17.72;77.57
37610;BME280;23457;51.966;8.230;2023-05-08T09:03:50;101485.16;;;17.92;76.72
37610;BME280;23457;51.966;8.230;2023-05-08T09:06:18;101479.88;;;17.99;75.80
37610;BME280;23457;51.966;8.230;2023-05-08T09:08:45;101483.41;;;17.86;77.30
37610;BME280;23457;51.966;8.230;2023-05-08T09:11:12;101483.34;;;18.22;77.65
37610;BME280;23457;51.966;8.230;2023-05-08T09:13:39;101481.47;;;18.59;73.96
37610;BME280;23457;51.966;8.230;2023-05-08T09:16:06;101486.63;;;18.75;75.29
37610;BME280;23457;51.966;8.230;2023-05-08T09:18:33;101479.66;;;18.66;76.15
37610;BME280;23457;51.966;8.230;2023-05-08T09:20:59;101475.25;;;18.70;72.48
37610;BME280;23457;51.966;8.230;2023-05-08T09:23:27;101481.41;;;18.66;74.30
37610;BME280;23457;51.966;8.230;2023-05-08T09:25:54;101476.06;;;18.85;72.92
37610;BME280;23457;51.966;8.230;2023-05-08T09:28:24;101480.25;;;19.14;75.17
37610;BME280;23457;51.966;8.230;2023-05-08T09:30:54;101473.56;;;19.79;68.67
37610;BME280;23457;51.966;8.230;2023-05-08T09:33:26;101469.84;;;20.01;68.65
37610;BME280;23457;51.966;8.230;2023-05-08T09:35:54;101475.97;;;20.01;69.38
37610;BME280;23457;51.966;8.230;2023-05-08T09:38:39;101481.53;;;20.54;68.44
37610;BME280;23457;51.966;8.230;2023-05-08T09:43:44;101474.41;;;20.63;64.71
37610;BME280;23457;51.966;8.230;2023-05-08T09:46:22;101480.44;;;19.98;67.26
37610;BME280;23457;51.966;8.230;2023-05-08T09:48:50;101482.50;;;19.65;69.09
37610;BME280;23457;51.966;8.230;2023-05-08T09:51:17;101480.75;;;19.64;68.76
37610;BME280;23457;51.966;8.230;2023-05-08T09:53:44;101478.50;;;20.12;71.54
37610;BME280;23457;51.966;8.230;2023-05-08T09:56:11;101479.91;;;20.44;73.18
37610;BME280;23457;51.966;8.230;2023-05-08T09:58:42;101475.38;;;20.53;69.45
37610;BME280;23457;51.966;8.230;2023-05-08T10:01:34;101475.09;;;20.76;70.24
37610;BME280;23457;51.966;8.230;2023-05-08T10:04:02;101476.31;;;21.14;65.97
37610;BME280;23457;51.966;8.230;2023-05-08T10:06:29;101464.59;;;21.30;65.63
37610;BME280;23457;51.966;8.230;2023-05-08T10:09:13;101476.72;;;21.43;66.50
37610;BME280;23457;51.966;8.230;2023-05-08T10:11:48;101468.91;;;21.37;66.52
37610;BME280;23457;51.966;8.230;2023-05-08T10:14:19;101471.31;;;21.51;65.66
37610;BME280;23457;51.966;8.230;2023-05-08T10:16:48;101472.19;;;20.94;66.63
37610;BME280;23457;51.966;8.230;2023-05-08T10:19:16;101467.19;;;21.33;68.24
37610;BME280;23457;51.966;8.230;2023-05-08T10:21:52;101463.19;;;21.63;66.77
37610;BME280;23457;51.966;8.230;2023-05-08T10:24:20;101464.47;;;21.39;67.70
37610;BME280;23457;51.966;8.230;2023-05-08T10:27:22;101469.19;;;21.19;67.97
37610;BME280;23457;51.966;8.230;2023-05-08T10:30:00;101464.34;;;21.45;69.42
37610;BME280;23457;51.966;8.230;2023-05-08T10:32:28;101461.47;;;21.59;68.09
37610;BME280;23457;51.966;8.230;2023-05-08T10:35:00;101462.44;;;20.98;69.81
37610;BME280;23457;51.966;8.230;2023-05-08T10:37:29;101464.72;;;21.24;69.23
37610;BME280;23457;51.966;8.230;2023-05-08T10:39:57;101464.91;;;21.08;68.84
37610;BME280;23457;51.966;8.230;2023-05-08T10:42:24;101460.56;;;20.42;72.55
37610;BME280;23457;51.966;8.230;2023-05-08T10:44:52;101457.19;;;20.95;71.57
37610;BME280;23457;51.966;8.230;2023-05-08T10:52:56;101458.28;;;20.80;71.13
37610;BME280;23457;51.966;8.230;2023-05-08T10:55:34;101458.75;;;21.08;71.72
37610;BME280;23457;51.966;8.230;2023-05-08T10:58:10;101451.75;;;20.43;73.80
37610;BME280;23457;51.966;8.230;2023-05-08T11:03:23;101450.16;;;20.94;75.53
37610;BME280;23457;51.966;8.230;2023-05-08T11:05:59;101451.69;;;21.08;75.68
37610;BME280;23457;51.966;8.230;2023-05-08T11:08:28;101451.66;;;21.65;70.71
37610;BME280;23457;51.966;8.230;2023-05-08T11:13:33;101450.84;;;21.06;72.63
37610;BME280;23457;51.966;8.230;2023-05-08T11:16:00;101448.41;;;21.51;74.08
37610;BME280;23457;51.966;8.230;2023-05-08T11:18:28;101453.38;;;21.66;71.90
37610;BME280;23457;51.966;8.230;2023-05-08T11:21:18;101454.38;;;21.62;70.78
37610;BME280;23457;51.966;8.230;2023-05-08T11:23:55;101459.97;;;21.92;70.20
37610;BME280;23457;51.966;8.230;2023-05-08T11:26:37;101448.19;;;21.63;71.64
37610;BME280;23457;51.966;8.230;2023-05-08T11:29:15;101451.53;;;21.22;71.73
37610;BME280;23457;51.966;8.230;2023-05-08T11:31:49;101447.28;;;21.10;74.08
37610;BME280;23457;51.966;8.230;2023-05-08T11:34:44;101448.19;;;21.63;71.22
37610;BME280;23457;51.966;8.230;2023-05-08T11:37:19;101453.03;;;21.37;71.83
37610;BME280;23457;51.966;8.230;2023-05-08T11:39:46;101444.88;;;20.94;73.47
37610;BME280;23457;51.966;8.230;2023-05-08T11:47:40;101437.38;;;21.75;72.95
37610;BME280;23457;51.966;8.230;2023-05-08T11:50:09;101431.69;;;21.95;74.78
37610;BME280;23457;51.966;8.230;2023-05-08T11:52:39;101437.69;;;22.48;68.61
37610;BME280;23457;51.966;8.230;2023-05-08T11:55:08;101434.09;;;22.09;68.80
37610;BME280;23457;51.966;8.230;2023-05-08T11:57:35;101433.81;;;21.78;73.04
37610;BME280;23457;51.966;8.230;2023-05-08T12:00:06;101436.38;;;21.32;72.83
37610;BME280;23457;51.966;8.230;2023-05-08T12:02:42;101436.50;;;21.24;72.30
37610;BME280;23457;51.966;8.230;2023-05-08T12:05:27;101436.59;;;21.17;73.03
37610;BME280;23457;51.966;8.230;2023-05-08T12:07:58;101429.00;;;21.52;72.59
37610;BME280;23457;51.966;8.230;2023-05-08T12:10:25;101440.03;;;21.25;72.41
37610;BME280;23457;51.966;8.230;2023-05-08T12:12:51;101437.44;;;21.22;74.14
37610;BME280;23457;51.966;8.230;2023-05-08T12:15:18;101438.34;;;21.18;73.10
37610;BME280;23457;51.966;8.230;2023-05-08T12:17:44;101436.16;;;21.44;73.18
37610;BME280;23457;51.966;8.230;2023-05-08T12:20:13;101438.69;;;21.52;71.80
37610;BME280;23457;51.966;8.230;2023-05-08T12:22:42;101430.38;;;21.71;72.75
37610;BME280;23457;51.966;8.230;2023-05-08T12:25:10;101432.72;;;21.88;70.51
37610;BME280;23457;51.966;8.230;2023-05-08T12:27:37;101435.66;;;22.17;68.47
37610;BME280;23457;51.966;8.230;2023-05-08T12:30:06;101431.81;;;21.89;69.00
37610;BME280;23457;51.966;8.230;2023-05-08T12:32:35;101419.31;;;21.96;69.44
37610;BME280;23457;51.966;8.230;2023-05-08T12:35:02;101420.69;;;22.16;71.99
37610;BME280;23457;51.966;8.230;2023-05-08T12:37:29;101416.16;;;22.23;68.12
37610;BME280;23457;51.966;8.230;2023-05-08T12:39:56;101407.25;;;22.27;70.24
37610;BME280;23457;51.966;8.230;2023-05-08T12:42:43;101406.50;;;22.61;70.71
37610;BME280;23457;51.966;8.230;2023-05-08T12:45:23;101400.44;;;22.94;69.19
37610;BME280;23457;51.966;8.230;2023-05-08T12:47:51;101402.66;;;23.80;64.39
37610;BME280;23457;51.966;8.230;2023-05-08T12:50:20;101404.03;;;24.24;62.06
37610;BME280;23457;51.966;8.230;2023-05-08T12:52:47;101411.44;;;24.44;62.28
37610;BME280;23457;51.966;8.230;2023-05-08T12:55:21;101401.41;;;24.82;59.23
37610;BME280;23457;51.966;8.230;2023-05-08T12:57:50;101404.28;;;24.15;55.97
37610;BME280;23457;51.966;8.230;2023-05-08T13:00:24;101397.84;;;24.24;60.43
37610;BME280;23457;51.966;8.230;2023-05-08T13:02:52;101395.72;;;24.94;56.82
37610;BME280;23457;51.966;8.230;2023-05-08T13:05:21;101395.53;;;24.71;55.00
37610;BME280;23457;51.966;8.230;2023-05-08T13:07:48;101388.72;;;24.90;57.72
37610;BME280;23457;51.966;8.230;2023-05-08T13:10:17;101389.25;;;25.01;55.18
37610;BME280;23457;51.966;8.230;2023-05-08T13:12:49;101387.69;;;24.38;58.08
37610;BME280;23457;51.966;8.230;2023-05-08T13:15:16;101387.13;;;24.56;55.04
37610;BME280;23457;51.966;8.230;2023-05-08T13:17:43;101388.91;;;24.28;56.37
37610;BME280;23457;51.966;8.230;2023-05-08T13:20:10;101384.34;;;23.36;57.83
37610;BME280;23457;51.966;8.230;2023-05-08T13:22:37;101389.28;;;23.51;59.55
37610;BME280;23457;51.966;8.230;2023-05-08T13:25:04;101389.28;;;24.72;59.95
37610;BME280;23457;51.966;8.230;2023-05-08T13:27:31;101391.34;;;25.44;55.12
37610;BME280;23457;51.966;8.230;2023-05-08T13:29:57;101394.63;;;25.77;52.35
37610;BME280;23457;51.966;8.230;2023-05-08T13:32:24;101388.09;;;25.34;52.50
37610;BME280;23457;51.966;8.230;2023-05-08T13:34:51;101384.41;;;24.58;54.56
37610;BME280;23457;51.966;8.230;2023-05-08T13:37:23;101385.22;;;24.88;54.45
37610;BME280;23457;51.966;8.230;2023-05-08T13:39:49;101387.38;;;25.05;54.79
37610;BME280;23457;51.966;8.230;2023-05-08T13:42:16;101381.56;;;24.92;55.18
37610;BME280;23457;51.966;8.230;2023-05-08T13:44:42;101382.53;;;24.61;55.41
37610;BME280;23457;51.966;8.230;2023-05-08T13:47:09;101386.44;;;24.78;54.36